University of Illinois Willard Airport Champaign,Urbana US
ICAO: KCMI
IATA: CMI
Category: Medium
Scheduled Services: Yes

Elevation: 755 ft
TransAlt. 18000 ft.

Airport Communications:
CHAMPAIGN APP/DEP:121.35
ATIS:124.85
CLNC DEL:128.75
CTAF:120.4
GND:121.8
ST LOUIS RDO:110
CHAMPAIGN TWR:118.25
UNICOM:122.95

KCMI Zoom In..

If you have problems with the map follow the link
https://www.worldairports.se/pages/airport.php?
ICAO=KCMI

Runways:

(A) RW 04 length 6501 ft width 150 ft
---- / hdg 41

(B) RW 14L length 8102 ft width 150 ft
---- / hdg 136

(C) RW 14R length 3817 ft width 75 ft
---- / hdg 136

(D) RW 18 length 5302 ft width 150 ft
---- / hdg 179

(E) RW 22 length 6501 ft width 150 ft
---- / hdg 221

(F) RW 32L length 3817 ft width 75 ft
---- / hdg 316

(G) RW 32R length 8102 ft width 150 ft
ILS 109.10 / hdg 316

(H) RW 36 length 5302 ft width 150 ft
---- / hdg 359

Location; KCMI
Day. 18 / Time. 21.53 Zulu
* Altimeter: 30.09
* Temperature: 01° c. 33.8°f.
* Wind from: 070° Speed 08 kn.
Dewpoint: -01° c.
Visibility: 4 Statute Miles.
Clouds: Overcast 2100 ft.
Conditions: Mist.

KCMI 182153Z 07008KT 4SM BR OVC021 01/M01 A3009 RMK AO2 SLP197 T00061011


Wind From 070°
Speed 08 kn.

 
 
jpsmedia.com for Web Design worldairports.se 2019   terms of use